sensor_id;sensor_type;location;lat;lon;timestamp;P1;durP1;ratioP1;P2;durP2;ratioP2
2896;SDS011;1458;49.728;9.228;2023-04-09T00:01:09;0.60;;;0.60;;
2896;SDS011;1458;49.728;9.228;2023-04-09T00:03:37;0.60;;;0.60;;
2896;SDS011;1458;49.728;9.228;2023-04-09T00:06:05;0.70;;;0.70;;
2896;SDS011;1458;49.728;9.228;2023-04-09T00:08:32;0.70;;;0.70;;
2896;SDS011;1458;49.728;9.228;2023-04-09T00:11:00;0.67;;;0.67;;
2896;SDS011;1458;49.728;9.228;2023-04-09T00:13:27;0.60;;;0.60;;
2896;SDS011;1458;49.728;9.228;2023-04-09T00:15:55;0.60;;;0.60;;
2896;SDS011;1458;49.728;9.228;2023-04-09T00:18:23;0.60;;;0.60;;
2896;SDS011;1458;49.728;9.228;2023-04-09T00:20:51;0.70;;;0.70;;
2896;SDS011;1458;49.728;9.228;2023-04-09T00:23:19;0.70;;;0.70;;
2896;SDS011;1458;49.728;9.228;2023-04-09T00:25:46;0.60;;;0.60;;
2896;SDS011;1458;49.728;9.228;2023-04-09T00:28:13;0.60;;;0.60;;
2896;SDS011;1458;49.728;9.228;2023-04-09T00:30:42;0.60;;;0.60;;
2896;SDS011;1458;49.728;9.228;2023-04-09T00:33:09;0.60;;;0.60;;
2896;SDS011;1458;49.728;9.228;2023-04-09T00:35:38;0.60;;;0.60;;
2896;SDS011;1458;49.728;9.228;2023-04-09T00:38:05;0.60;;;0.60;;
2896;SDS011;1458;49.728;9.228;2023-04-09T00:40:33;0.60;;;0.60;;
2896;SDS011;1458;49.728;9.228;2023-04-09T00:43:00;0.60;;;0.60;;
2896;SDS011;1458;49.728;9.228;2023-04-09T00:45:28;0.70;;;0.70;;
2896;SDS011;1458;49.728;9.228;2023-04-09T00:47:56;0.60;;;0.60;;
2896;SDS011;1458;49.728;9.228;2023-04-09T00:50:23;0.70;;;0.70;;
2896;SDS011;1458;49.728;9.228;2023-04-09T00:52:55;0.60;;;0.60;;
2896;SDS011;1458;49.728;9.228;2023-04-09T00:55:22;0.60;;;0.60;;
2896;SDS011;1458;49.728;9.228;2023-04-09T00:57:51;0.70;;;0.70;;
2896;SDS011;1458;49.728;9.228;2023-04-09T01:00:19;0.70;;;0.70;;
2896;SDS011;1458;49.728;9.228;2023-04-09T01:02:46;0.70;;;0.70;;
2896;SDS011;1458;49.728;9.228;2023-04-09T01:05:15;0.70;;;0.70;;
2896;SDS011;1458;49.728;9.228;2023-04-09T01:07:47;0.60;;;0.60;;
2896;SDS011;1458;49.728;9.228;2023-04-09T01:10:33;0.60;;;0.60;;
2896;SDS011;1458;49.728;9.228;2023-04-09T01:13:06;0.60;;;0.60;;
2896;SDS011;1458;49.728;9.228;2023-04-09T01:15:43;0.60;;;0.60;;
2896;SDS011;1458;49.728;9.228;2023-04-09T01:18:21;0.70;;;0.70;;
2896;SDS011;1458;49.728;9.228;2023-04-09T01:20:55;0.60;;;0.60;;
2896;SDS011;1458;49.728;9.228;2023-04-09T01:23:31;0.70;;;0.70;;
2896;SDS011;1458;49.728;9.228;2023-04-09T01:26:17;0.60;;;0.60;;
2896;SDS011;1458;49.728;9.228;2023-04-09T01:28:56;0.60;;;0.60;;
2896;SDS011;1458;49.728;9.228;2023-04-09T01:31:28;0.70;;;0.70;;
2896;SDS011;1458;49.728;9.228;2023-04-09T01:33:58;0.70;;;0.70;;
2896;SDS011;1458;49.728;9.228;2023-04-09T01:36:26;0.70;;;0.70;;
2896;SDS011;1458;49.728;9.228;2023-04-09T01:38:57;0.60;;;0.60;;
2896;SDS011;1458;49.728;9.228;2023-04-09T01:41:27;0.60;;;0.60;;
2896;SDS011;1458;49.728;9.228;2023-04-09T01:43:59;0.60;;;0.60;;
2896;SDS011;1458;49.728;9.228;2023-04-09T01:46:29;0.60;;;0.60;;
2896;SDS011;1458;49.728;9.228;2023-04-09T01:48:57;0.60;;;0.60;;
2896;SDS011;1458;49.728;9.228;2023-04-09T01:51:26;0.60;;;0.60;;
2896;SDS011;1458;49.728;9.228;2023-04-09T01:53:53;0.60;;;0.60;;
2896;SDS011;1458;49.728;9.228;2023-04-09T01:56:22;0.60;;;0.60;;
2896;SDS011;1458;49.728;9.228;2023-04-09T01:58:50;0.60;;;0.60;;
2896;SDS011;1458;49.728;9.228;2023-04-09T02:01:21;0.60;;;0.60;;
2896;SDS011;1458;49.728;9.228;2023-04-09T02:03:53;0.50;;;0.50;;
2896;SDS011;1458;49.728;9.228;2023-04-09T02:06:27;0.60;;;0.60;;
2896;SDS011;1458;49.728;9.228;2023-04-09T02:09:02;0.60;;;0.60;;
2896;SDS011;1458;49.728;9.228;2023-04-09T02:11:34;0.60;;;0.60;;
2896;SDS011;1458;49.728;9.228;2023-04-09T02:14:06;0.60;;;0.60;;
2896;SDS011;1458;49.728;9.228;2023-04-09T02:16:37;0.60;;;0.60;;
2896;SDS011;1458;49.728;9.228;2023-04-09T02:19:06;0.60;;;0.60;;
2896;SDS011;1458;49.728;9.228;2023-04-09T02:21:34;0.50;;;0.50;;
2896;SDS011;1458;49.728;9.228;2023-04-09T02:24:01;0.60;;;0.60;;
2896;SDS011;1458;49.728;9.228;2023-04-09T02:26:29;0.60;;;0.60;;
2896;SDS011;1458;49.728;9.228;2023-04-09T02:28:57;0.60;;;0.60;;
2896;SDS011;1458;49.728;9.228;2023-04-09T02:31:24;0.63;;;0.63;;
2896;SDS011;1458;49.728;9.228;2023-04-09T02:33:53;0.60;;;0.60;;
2896;SDS011;1458;49.728;9.228;2023-04-09T02:36:21;0.67;;;0.67;;
2896;SDS011;1458;49.728;9.228;2023-04-09T02:38:49;0.63;;;0.63;;
2896;SDS011;1458;49.728;9.228;2023-04-09T02:41:17;0.60;;;0.60;;
2896;SDS011;1458;49.728;9.228;2023-04-09T02:43:45;0.60;;;0.60;;
2896;SDS011;1458;49.728;9.228;2023-04-09T02:46:12;0.60;;;0.60;;
2896;SDS011;1458;49.728;9.228;2023-04-09T02:48:40;0.60;;;0.60;;
2896;SDS011;1458;49.728;9.228;2023-04-09T02:51:09;0.60;;;0.60;;
2896;SDS011;1458;49.728;9.228;2023-04-09T02:53:36;0.70;;;0.70;;
2896;SDS011;1458;49.728;9.228;2023-04-09T02:56:05;0.60;;;0.60;;
2896;SDS011;1458;49.728;9.228;2023-04-09T02:58:33;0.70;;;0.70;;
2896;SDS011;1458;49.728;9.228;2023-04-09T03:01:00;0.60;;;0.60;;
2896;SDS011;1458;49.728;9.228;2023-04-09T03:03:28;0.60;;;0.60;;
2896;SDS011;1458;49.728;9.228;2023-04-09T03:05:55;0.60;;;0.60;;
2896;SDS011;1458;49.728;9.228;2023-04-09T03:08:25;0.60;;;0.60;;
2896;SDS011;1458;49.728;9.228;2023-04-09T03:10:52;0.60;;;0.60;;
2896;SDS011;1458;49.728;9.228;2023-04-09T03:13:20;0.60;;;0.60;;
2896;SDS011;1458;49.728;9.228;2023-04-09T03:15:50;0.60;;;0.60;;
2896;SDS011;1458;49.728;9.228;2023-04-09T03:18:18;0.60;;;0.60;;
2896;SDS011;1458;49.728;9.228;2023-04-09T03:20:46;0.60;;;0.60;;
2896;SDS011;1458;49.728;9.228;2023-04-09T03:23:14;0.70;;;0.70;;
2896;SDS011;1458;49.728;9.228;2023-04-09T03:25:46;0.60;;;0.60;;
2896;SDS011;1458;49.728;9.228;2023-04-09T03:28:15;0.60;;;0.60;;
2896;SDS011;1458;49.728;9.228;2023-04-09T03:30:47;0.60;;;0.60;;
2896;SDS011;1458;49.728;9.228;2023-04-09T03:33:14;0.60;;;0.60;;
2896;SDS011;1458;49.728;9.228;2023-04-09T03:35:55;0.60;;;0.60;;
2896;SDS011;1458;49.728;9.228;2023-04-09T03:38:42;0.60;;;0.60;;
2896;SDS011;1458;49.728;9.228;2023-04-09T03:41:23;0.60;;;0.60;;
2896;SDS011;1458;49.728;9.228;2023-04-09T03:43:53;0.60;;;0.60;;
2896;SDS011;1458;49.728;9.228;2023-04-09T03:46:24;0.60;;;0.60;;
2896;SDS011;1458;49.728;9.228;2023-04-09T03:48:53;0.60;;;0.60;;
2896;SDS011;1458;49.728;9.228;2023-04-09T03:51:24;0.60;;;0.60;;
2896;SDS011;1458;49.728;9.228;2023-04-09T03:53:55;0.60;;;0.60;;
2896;SDS011;1458;49.728;9.228;2023-04-09T03:56:24;0.50;;;0.50;;
2896;SDS011;1458;49.728;9.228;2023-04-09T03:58:52;0.60;;;0.60;;
2896;SDS011;1458;49.728;9.228;2023-04-09T04:01:24;0.50;;;0.50;;
2896;SDS011;1458;49.728;9.228;2023-04-09T04:03:56;0.60;;;0.60;;
2896;SDS011;1458;49.728;9.228;2023-04-09T04:06:31;0.60;;;0.60;;
2896;SDS011;1458;49.728;9.228;2023-04-09T04:09:18;0.50;;;0.50;;
2896;SDS011;1458;49.728;9.228;2023-04-09T04:11:55;0.60;;;0.60;;
2896;SDS011;1458;49.728;9.228;2023-04-09T04:14:33;0.60;;;0.60;;
2896;SDS011;1458;49.728;9.228;2023-04-09T04:17:09;0.60;;;0.60;;
2896;SDS011;1458;49.728;9.228;2023-04-09T04:19:37;0.60;;;0.60;;
2896;SDS011;1458;49.728;9.228;2023-04-09T04:22:05;0.50;;;0.50;;
2896;SDS011;1458;49.728;9.228;2023-04-09T04:24:36;0.60;;;0.60;;
2896;SDS011;1458;49.728;9.228;2023-04-09T04:27:06;0.60;;;0.60;;
2896;SDS011;1458;49.728;9.228;2023-04-09T04:29:34;0.60;;;0.60;;
2896;SDS011;1458;49.728;9.228;2023-04-09T04:32:11;0.50;;;0.50;;
2896;SDS011;1458;49.728;9.228;2023-04-09T04:34:38;0.57;;;0.57;;
2896;SDS011;1458;49.728;9.228;2023-04-09T04:37:17;0.50;;;0.50;;
2896;SDS011;1458;49.728;9.228;2023-04-09T04:39:45;0.50;;;0.50;;
2896;SDS011;1458;49.728;9.228;2023-04-09T04:42:16;0.50;;;0.50;;
2896;SDS011;1458;49.728;9.228;2023-04-09T04:44:45;0.60;;;0.60;;
2896;SDS011;1458;49.728;9.228;2023-04-09T04:47:29;0.60;;;0.60;;
2896;SDS011;1458;49.728;9.228;2023-04-09T04:49:58;0.60;;;0.60;;
2896;SDS011;1458;49.728;9.228;2023-04-09T04:52:26;0.50;;;0.50;;
2896;SDS011;1458;49.728;9.228;2023-04-09T04:54:54;0.60;;;0.60;;
2896;SDS011;1458;49.728;9.228;2023-04-09T04:57:24;0.50;;;0.50;;
2896;SDS011;1458;49.728;9.228;2023-04-09T04:59:53;0.50;;;0.50;;
2896;SDS011;1458;49.728;9.228;2023-04-09T05:02:20;0.50;;;0.50;;
2896;SDS011;1458;49.728;9.228;2023-04-09T05:05:14;0.50;;;0.50;;
2896;SDS011;1458;49.728;9.228;2023-04-09T05:07:47;0.60;;;0.60;;
2896;SDS011;1458;49.728;9.228;2023-04-09T05:10:15;0.50;;;0.50;;
2896;SDS011;1458;49.728;9.228;2023-04-09T05:12:45;0.50;;;0.50;;
2896;SDS011;1458;49.728;9.228;2023-04-09T05:15:21;0.60;;;0.60;;
2896;SDS011;1458;49.728;9.228;2023-04-09T05:17:48;0.50;;;0.50;;
2896;SDS011;1458;49.728;9.228;2023-04-09T05:20:16;0.50;;;0.50;;
2896;SDS011;1458;49.728;9.228;2023-04-09T05:22:50;0.50;;;0.50;;
2896;SDS011;1458;49.728;9.228;2023-04-09T05:25:25;0.50;;;0.50;;
2896;SDS011;1458;49.728;9.228;2023-04-09T05:27:53;0.50;;;0.50;;
2896;SDS011;1458;49.728;9.228;2023-04-09T05:30:23;0.50;;;0.50;;
2896;SDS011;1458;49.728;9.228;2023-04-09T05:32:51;0.60;;;0.60;;
2896;SDS011;1458;49.728;9.228;2023-04-09T05:35:19;0.50;;;0.50;;
2896;SDS011;1458;49.728;9.228;2023-04-09T05:37:47;0.50;;;0.50;;
2896;SDS011;1458;49.728;9.228;2023-04-09T05:40:15;0.50;;;0.50;;
2896;SDS011;1458;49.728;9.228;2023-04-09T05:42:42;0.60;;;0.60;;
2896;SDS011;1458;49.728;9.228;2023-04-09T05:45:22;0.50;;;0.50;;
2896;SDS011;1458;49.728;9.228;2023-04-09T05:47:51;0.50;;;0.50;;
2896;SDS011;1458;49.728;9.228;2023-04-09T05:50:21;0.50;;;0.50;;
2896;SDS011;1458;49.728;9.228;2023-04-09T05:52:51;0.50;;;0.50;;
2896;SDS011;1458;49.728;9.228;2023-04-09T05:55:20;0.50;;;0.50;;
2896;SDS011;1458;49.728;9.228;2023-04-09T05:57:56;0.50;;;0.50;;
2896;SDS011;1458;49.728;9.228;2023-04-09T06:00:26;0.50;;;0.50;;
2896;SDS011;1458;49.728;9.228;2023-04-09T06:02:54;0.50;;;0.50;;
2896;SDS011;1458;49.728;9.228;2023-04-09T06:05:21;0.50;;;0.50;;
2896;SDS011;1458;49.728;9.228;2023-04-09T06:07:50;0.50;;;0.50;;
2896;SDS011;1458;49.728;9.228;2023-04-09T06:10:17;0.50;;;0.50;;
2896;SDS011;1458;49.728;9.228;2023-04-09T06:12:47;0.50;;;0.50;;
2896;SDS011;1458;49.728;9.228;2023-04-09T06:15:14;0.50;;;0.50;;
2896;SDS011;1458;49.728;9.228;2023-04-09T06:17:44;0.50;;;0.50;;
2896;SDS011;1458;49.728;9.228;2023-04-09T06:20:11;0.50;;;0.50;;
2896;SDS011;1458;49.728;9.228;2023-04-09T06:22:39;0.50;;;0.50;;
2896;SDS011;1458;49.728;9.228;2023-04-09T06:25:07;0.47;;;0.47;;
2896;SDS011;1458;49.728;9.228;2023-04-09T06:27:35;0.40;;;0.40;;
2896;SDS011;1458;49.728;9.228;2023-04-09T06:30:02;0.50;;;0.50;;
2896;SDS011;1458;49.728;9.228;2023-04-09T06:32:31;0.50;;;0.50;;
2896;SDS011;1458;49.728;9.228;2023-04-09T06:35:00;0.50;;;0.50;;
2896;SDS011;1458;49.728;9.228;2023-04-09T06:37:27;0.50;;;0.50;;
2896;SDS011;1458;49.728;9.228;2023-04-09T06:39:55;0.50;;;0.50;;
2896;SDS011;1458;49.728;9.228;2023-04-09T06:42:22;0.50;;;0.50;;
2896;SDS011;1458;49.728;9.228;2023-04-09T06:44:56;0.60;;;0.60;;
2896;SDS011;1458;49.728;9.228;2023-04-09T06:47:24;0.50;;;0.50;;
2896;SDS011;1458;49.728;9.228;2023-04-09T06:49:52;0.50;;;0.50;;
2896;SDS011;1458;49.728;9.228;2023-04-09T06:52:20;0.70;;;0.70;;
2896;SDS011;1458;49.728;9.228;2023-04-09T06:54:48;0.50;;;0.50;;
2896;SDS011;1458;49.728;9.228;2023-04-09T06:57:16;0.50;;;0.50;;
2896;SDS011;1458;49.728;9.228;2023-04-09T06:59:43;0.50;;;0.50;;
2896;SDS011;1458;49.728;9.228;2023-04-09T07:02:11;0.50;;;0.50;;
2896;SDS011;1458;49.728;9.228;2023-04-09T07:04:38;0.53;;;0.53;;
2896;SDS011;1458;49.728;9.228;2023-04-09T07:07:06;0.50;;;0.50;;
2896;SDS011;1458;49.728;9.228;2023-04-09T07:09:34;0.60;;;0.60;;
2896;SDS011;1458;49.728;9.228;2023-04-09T07:12:02;0.53;;;0.53;;
2896;SDS011;1458;49.728;9.228;2023-04-09T07:14:29;0.60;;;0.60;;
2896;SDS011;1458;49.728;9.228;2023-04-09T07:16:57;0.63;;;0.63;;
2896;SDS011;1458;49.728;9.228;2023-04-09T07:19:24;0.60;;;0.60;;
2896;SDS011;1458;49.728;9.228;2023-04-09T07:21:51;0.50;;;0.50;;
2896;SDS011;1458;49.728;9.228;2023-04-09T07:24:19;0.60;;;0.60;;
2896;SDS011;1458;49.728;9.228;2023-04-09T07:26:48;0.60;;;0.60;;
2896;SDS011;1458;49.728;9.228;2023-04-09T07:29:15;0.60;;;0.60;;
2896;SDS011;1458;49.728;9.228;2023-04-09T07:31:45;0.50;;;0.50;;
2896;SDS011;1458;49.728;9.228;2023-04-09T07:34:12;0.50;;;0.50;;
2896;SDS011;1458;49.728;9.228;2023-04-09T07:36:42;0.50;;;0.50;;
2896;SDS011;1458;49.728;9.228;2023-04-09T07:39:09;0.50;;;0.50;;
2896;SDS011;1458;49.728;9.228;2023-04-09T07:41:36;0.50;;;0.50;;
2896;SDS011;1458;49.728;9.228;2023-04-09T07:44:06;0.50;;;0.50;;
2896;SDS011;1458;49.728;9.228;2023-04-09T07:46:33;0.50;;;0.50;;
2896;SDS011;1458;49.728;9.228;2023-04-09T07:49:01;0.50;;;0.50;;
2896;SDS011;1458;49.728;9.228;2023-04-09T07:51:28;0.70;;;0.70;;
2896;SDS011;1458;49.728;9.228;2023-04-09T07:53:56;0.63;;;0.63;;
2896;SDS011;1458;49.728;9.228;2023-04-09T07:56:24;0.60;;;0.60;;
2896;SDS011;1458;49.728;9.228;2023-04-09T07:58:54;0.60;;;0.60;;
2896;SDS011;1458;49.728;9.228;2023-04-09T08:01:23;0.70;;;0.70;;
2896;SDS011;1458;49.728;9.228;2023-04-09T08:03:50;0.80;;;0.80;;
2896;SDS011;1458;49.728;9.228;2023-04-09T08:06:18;0.90;;;0.90;;
2896;SDS011;1458;49.728;9.228;2023-04-09T08:08:45;1.20;;;1.20;;
2896;SDS011;1458;49.728;9.228;2023-04-09T08:11:13;1.40;;;1.40;;
2896;SDS011;1458;49.728;9.228;2023-04-09T08:13:40;1.40;;;1.40;;
2896;SDS011;1458;49.728;9.228;2023-04-09T08:16:08;1.50;;;1.50;;
2896;SDS011;1458;49.728;9.228;2023-04-09T08:18:37;1.50;;;1.50;;
2896;SDS011;1458;49.728;9.228;2023-04-09T08:21:07;1.40;;;1.40;;
2896;SDS011;1458;49.728;9.228;2023-04-09T08:23:35;1.50;;;1.50;;
2896;SDS011;1458;49.728;9.228;2023-04-09T08:26:03;1.67;;;1.67;;
2896;SDS011;1458;49.728;9.228;2023-04-09T08:28:30;1.90;;;1.90;;
2896;SDS011;1458;49.728;9.228;2023-04-09T08:30:58;1.70;;;1.70;;
2896;SDS011;1458;49.728;9.228;2023-04-09T08:33:26;1.63;;;1.63;;
2896;SDS011;1458;49.728;9.228;2023-04-09T08:35:55;2.00;;;2.00;;
2896;SDS011;1458;49.728;9.228;2023-04-09T08:38:23;1.90;;;1.90;;
2896;SDS011;1458;49.728;9.228;2023-04-09T08:40:51;2.20;;;2.20;;
2896;SDS011;1458;49.728;9.228;2023-04-09T08:43:19;2.10;;;2.10;;
2896;SDS011;1458;49.728;9.228;2023-04-09T08:45:48;2.30;;;2.30;;
2896;SDS011;1458;49.728;9.228;2023-04-09T08:48:19;2.27;;;2.27;;
2896;SDS011;1458;49.728;9.228;2023-04-09T08:50:47;2.00;;;2.00;;
2896;SDS011;1458;49.728;9.228;2023-04-09T08:53:18;2.60;;;2.60;;
2896;SDS011;1458;49.728;9.228;2023-04-09T08:55:47;2.90;;;2.90;;
2896;SDS011;1458;49.728;9.228;2023-04-09T08:58:15;3.23;;;3.23;;
2896;SDS011;1458;49.728;9.228;2023-04-09T09:00:44;3.47;;;3.47;;
2896;SDS011;1458;49.728;9.228;2023-04-09T09:03:13;3.03;;;3.03;;
2896;SDS011;1458;49.728;9.228;2023-04-09T09:05:42;3.37;;;3.37;;
2896;SDS011;1458;49.728;9.228;2023-04-09T09:08:12;3.60;;;3.60;;
2896;SDS011;1458;49.728;9.228;2023-04-09T09:10:50;3.43;;;3.43;;
2896;SDS011;1458;49.728;9.228;2023-04-09T09:13:18;4.80;;;4.80;;
2896;SDS011;1458;49.728;9.228;2023-04-09T09:15:48;5.60;;;5.60;;
2896;SDS011;1458;49.728;9.228;2023-04-09T09:18:19;6.50;;;6.50;;
2896;SDS011;1458;49.728;9.228;2023-04-09T09:20:47;6.07;;;6.07;;
2896;SDS011;1458;49.728;9.228;2023-04-09T09:23:15;7.33;;;7.23;;
2896;SDS011;1458;49.728;9.228;2023-04-09T09:25:43;7.00;;;6.90;;
2896;SDS011;1458;49.728;9.228;2023-04-09T09:28:11;7.00;;;6.90;;
2896;SDS011;1458;49.728;9.228;2023-04-09T09:30:39;7.60;;;7.50;;
2896;SDS011;1458;49.728;9.228;2023-04-09T09:33:07;7.60;;;7.50;;
2896;SDS011;1458;49.728;9.228;2023-04-09T09:35:45;7.30;;;7.20;;
2896;SDS011;1458;49.728;9.228;2023-04-09T09:38:14;7.47;;;7.37;;
2896;SDS011;1458;49.728;9.228;2023-04-09T09:40:43;8.10;;;8.00;;
2896;SDS011;1458;49.728;9.228;2023-04-09T09:43:11;8.40;;;8.30;;
2896;SDS011;1458;49.728;9.228;2023-04-09T09:45:39;8.50;;;8.40;;
2896;SDS011;1458;49.728;9.228;2023-04-09T09:48:09;8.60;;;8.50;;
2896;SDS011;1458;49.728;9.228;2023-04-09T09:50:39;8.33;;;8.23;;
2896;SDS011;1458;49.728;9.228;2023-04-09T09:53:09;8.60;;;8.50;;
2896;SDS011;1458;49.728;9.228;2023-04-09T09:55:38;8.57;;;8.47;;
2896;SDS011;1458;49.728;9.228;2023-04-09T09:58:14;9.10;;;8.90;;
2896;SDS011;1458;49.728;9.228;2023-04-09T10:00:46;9.10;;;8.90;;
2896;SDS011;1458;49.728;9.228;2023-04-09T10:03:19;9.40;;;9.20;;
2896;SDS011;1458;49.728;9.228;2023-04-09T10:05:48;9.53;;;9.33;;
2896;SDS011;1458;49.728;9.228;2023-04-09T10:08:17;10.20;;;10.00;;
2896;SDS011;1458;49.728;9.228;2023-04-09T10:10:46;9.90;;;9.70;;
2896;SDS011;1458;49.728;9.228;2023-04-09T10:13:18;11.00;;;10.70;;
2896;SDS011;1458;49.728;9.228;2023-04-09T10:15:51;10.50;;;10.30;;
2896;SDS011;1458;49.728;9.228;2023-04-09T10:18:18;10.30;;;10.10;;
2896;SDS011;1458;49.728;9.228;2023-04-09T10:20:48;9.90;;;9.70;;
2896;SDS011;1458;49.728;9.228;2023-04-09T10:23:25;10.80;;;10.50;;
2896;SDS011;1458;49.728;9.228;2023-04-09T10:26:04;10.63;;;10.33;;
2896;SDS011;1458;49.728;9.228;2023-04-09T10:28:34;10.40;;;10.20;;
2896;SDS011;1458;49.728;9.228;2023-04-09T10:31:03;11.00;;;10.70;;
2896;SDS011;1458;49.728;9.228;2023-04-09T10:33:32;10.80;;;10.50;;
2896;SDS011;1458;49.728;9.228;2023-04-09T10:36:03;11.10;;;10.80;;
2896;SDS011;1458;49.728;9.228;2023-04-09T10:38:37;11.30;;;11.00;;
2896;SDS011;1458;49.728;9.228;2023-04-09T10:41:07;11.80;;;11.50;;
2896;SDS011;1458;49.728;9.228;2023-04-09T10:43:41;11.90;;;11.60;;
2896;SDS011;1458;49.728;9.228;2023-04-09T10:46:25;11.93;;;11.63;;
2896;SDS011;1458;49.728;9.228;2023-04-09T10:49:09;11.70;;;11.40;;
2896;SDS011;1458;49.728;9.228;2023-04-09T10:51:40;11.70;;;11.40;;
2896;SDS011;1458;49.728;9.228;2023-04-09T10:57:15;11.80;;;11.50;;
2896;SDS011;1458;49.728;9.228;2023-04-09T10:59:47;11.70;;;11.40;;
2896;SDS011;1458;49.728;9.228;2023-04-09T11:05:36;11.40;;;11.10;;
2896;SDS011;1458;49.728;9.228;2023-04-09T11:08:04;12.00;;;11.70;;
2896;SDS011;1458;49.728;9.228;2023-04-09T11:10:35;11.00;;;10.70;;
2896;SDS011;1458;49.728;9.228;2023-04-09T11:13:03;11.27;;;10.97;;
2896;SDS011;1458;49.728;9.228;2023-04-09T11:15:33;11.10;;;10.80;;
2896;SDS011;1458;49.728;9.228;2023-04-09T11:18:01;11.30;;;11.00;;
2896;SDS011;1458;49.728;9.228;2023-04-09T11:20:32;11.10;;;10.80;;
2896;SDS011;1458;49.728;9.228;2023-04-09T11:23:00;11.10;;;10.80;;
2896;SDS011;1458;49.728;9.228;2023-04-09T11:25:29;11.70;;;11.40;;
2896;SDS011;1458;49.728;9.228;2023-04-09T11:27:58;12.27;;;11.97;;
2896;SDS011;1458;49.728;9.228;2023-04-09T11:30:28;11.30;;;11.00;;
2896;SDS011;1458;49.728;9.228;2023-04-09T11:32:57;11.53;;;11.23;;
2896;SDS011;1458;49.728;9.228;2023-04-09T11:35:24;11.80;;;11.50;;
2896;SDS011;1458;49.728;9.228;2023-04-09T11:37:52;11.50;;;11.20;;
2896;SDS011;1458;49.728;9.228;2023-04-09T11:40:20;11.70;;;11.40;;
2896;SDS011;1458;49.728;9.228;2023-04-09T11:42:49;11.60;;;11.30;;
2896;SDS011;1458;49.728;9.228;2023-04-09T11:45:19;10.80;;;10.53;;
2896;SDS011;1458;49.728;9.228;2023-04-09T11:47:48;11.63;;;11.33;;
2896;SDS011;1458;49.728;9.228;2023-04-09T11:50:17;11.23;;;10.93;;
2896;SDS011;1458;49.728;9.228;2023-04-09T11:52:45;12.10;;;11.80;;
2896;SDS011;1458;49.728;9.228;2023-04-09T11:55:21;12.00;;;11.70;;
2896;SDS011;1458;49.728;9.228;2023-04-09T11:57:50;11.40;;;11.10;;
2896;SDS011;1458;49.728;9.228;2023-04-09T12:00:20;11.50;;;11.20;;
2896;SDS011;1458;49.728;9.228;2023-04-09T12:02:49;11.70;;;11.40;;
2896;SDS011;1458;49.728;9.228;2023-04-09T12:05:26;12.00;;;11.70;;
2896;SDS011;1458;49.728;9.228;2023-04-09T12:07:57;11.70;;;11.40;;
2896;SDS011;1458;49.728;9.228;2023-04-09T12:10:26;11.60;;;11.30;;
2896;SDS011;1458;49.728;9.228;2023-04-09T12:12:59;11.60;;;11.30;;
2896;SDS011;1458;49.728;9.228;2023-04-09T12:15:30;11.50;;;11.20;;
2896;SDS011;1458;49.728;9.228;2023-04-09T12:17:59;11.30;;;11.00;;
2896;SDS011;1458;49.728;9.228;2023-04-09T12:20:29;11.80;;;11.50;;
2896;SDS011;1458;49.728;9.228;2023-04-09T12:23:01;12.17;;;11.87;;
2896;SDS011;1458;49.728;9.228;2023-04-09T12:25:31;11.60;;;11.30;;
2896;SDS011;1458;49.728;9.228;2023-04-09T12:28:01;11.60;;;11.30;;
2896;SDS011;1458;49.728;9.228;2023-04-09T12:30:29;11.87;;;11.57;;
2896;SDS011;1458;49.728;9.228;2023-04-09T12:32:56;11.57;;;11.27;;
2896;SDS011;1458;49.728;9.228;2023-04-09T12:35:24;12.10;;;11.80;;
2896;SDS011;1458;49.728;9.228;2023-04-09T12:37:53;12.60;;;12.27;;
2896;SDS011;1458;49.728;9.228;2023-04-09T12:40:21;13.00;;;12.60;;
2896;SDS011;1458;49.728;9.228;2023-04-09T12:42:49;12.60;;;12.20;;
2896;SDS011;1458;49.728;9.228;2023-04-09T12:45:17;12.07;;;11.77;;
2896;SDS011;1458;49.728;9.228;2023-04-09T12:47:46;12.47;;;12.17;;
2896;SDS011;1458;49.728;9.228;2023-04-09T12:50:17;12.23;;;11.93;;
2896;SDS011;1458;49.728;9.228;2023-04-09T12:52:44;12.60;;;12.20;;
2896;SDS011;1458;49.728;9.228;2023-04-09T12:55:13;12.70;;;12.30;;
2896;SDS011;1458;49.728;9.228;2023-04-09T12:57:41;12.60;;;12.20;;
2896;SDS011;1458;49.728;9.228;2023-04-09T13:00:11;12.13;;;11.83;;
2896;SDS011;1458;49.728;9.228;2023-04-09T13:02:40;12.00;;;11.70;;
2896;SDS011;1458;49.728;9.228;2023-04-09T13:05:07;12.40;;;12.10;;
2896;SDS011;1458;49.728;9.228;2023-04-09T13:07:35;12.17;;;11.87;;
2896;SDS011;1458;49.728;9.228;2023-04-09T13:10:03;11.90;;;11.60;;
2896;SDS011;1458;49.728;9.228;2023-04-09T13:12:32;11.70;;;11.40;;
2896;SDS011;1458;49.728;9.228;2023-04-09T13:15:00;12.10;;;11.80;;
2896;SDS011;1458;49.728;9.228;2023-04-09T13:17:28;12.00;;;11.70;;
2896;SDS011;1458;49.728;9.228;2023-04-09T13:19:55;11.90;;;11.60;;
2896;SDS011;1458;49.728;9.228;2023-04-09T13:22:23;12.70;;;12.30;;
2896;SDS011;1458;49.728;9.228;2023-04-09T13:24:50;12.20;;;11.90;;
2896;SDS011;1458;49.728;9.228;2023-04-09T13:27:17;12.20;;;11.90;;
2896;SDS011;1458;49.728;9.228;2023-04-09T13:29:47;12.20;;;11.90;;
2896;SDS011;1458;49.728;9.228;2023-04-09T13:32:15;12.70;;;12.30;;
2896;SDS011;1458;49.728;9.228;2023-04-09T13:34:45;12.27;;;11.97;;
2896;SDS011;1458;49.728;9.228;2023-04-09T13:37:12;12.60;;;12.20;;
2896;SDS011;1458;49.728;9.228;2023-04-09T13:39:40;12.40;;;12.10;;
2896;SDS011;1458;49.728;9.228;2023-04-09T13:42:09;12.80;;;12.40;;
2896;SDS011;1458;49.728;9.228;2023-04-09T13:44:36;12.40;;;12.10;;
2896;SDS011;1458;49.728;9.228;2023-04-09T13:47:07;12.67;;;12.27;;
2896;SDS011;1458;49.728;9.228;2023-04-09T13:49:37;13.27;;;12.87;;
2896;SDS011;1458;49.728;9.228;2023-04-09T13:52:04;13.27;;;12.87;;
2896;SDS011;1458;49.728;9.228;2023-04-09T13:54:32;13.00;;;12.60;;
2896;SDS011;1458;49.728;9.228;2023-04-09T13:57:00;13.20;;;12.80;;
2896;SDS011;1458;49.728;9.228;2023-04-09T13:59:28;13.30;;;12.90;;
2896;SDS011;1458;49.728;9.228;2023-04-09T14:01:55;13.00;;;12.60;;
2896;SDS011;1458;49.728;9.228;2023-04-09T14:04:24;13.50;;;13.10;;
2896;SDS011;1458;49.728;9.228;2023-04-09T14:06:52;13.20;;;12.80;;
2896;SDS011;1458;49.728;9.228;2023-04-09T14:09:19;13.27;;;12.87;;
2896;SDS011;1458;49.728;9.228;2023-04-09T14:11:47;13.50;;;13.10;;
2896;SDS011;1458;49.728;9.228;2023-04-09T14:14:15;13.50;;;13.10;;
2896;SDS011;1458;49.728;9.228;2023-04-09T14:16:44;13.30;;;12.90;;
2896;SDS011;1458;49.728;9.228;2023-04-09T14:19:12;13.40;;;13.00;;
2896;SDS011;1458;49.728;9.228;2023-04-09T14:21:41;13.93;;;13.53;;
2896;SDS011;1458;49.728;9.228;2023-04-09T14:24:08;13.57;;;13.17;;
2896;SDS011;1458;49.728;9.228;2023-04-09T14:26:36;14.20;;;13.70;;
2896;SDS011;1458;49.728;9.228;2023-04-09T14:29:03;13.23;;;12.83;;
2896;SDS011;1458;49.728;9.228;2023-04-09T14:31:31;13.00;;;12.60;;
2896;SDS011;1458;49.728;9.228;2023-04-09T14:33:58;13.40;;;13.00;;
2896;SDS011;1458;49.728;9.228;2023-04-09T14:36:26;14.00;;;13.57;;
2896;SDS011;1458;49.728;9.228;2023-04-09T14:38:55;13.30;;;12.90;;
2896;SDS011;1458;49.728;9.228;2023-04-09T14:41:22;14.07;;;13.57;;
2896;SDS011;1458;49.728;9.228;2023-04-09T14:43:50;13.40;;;13.00;;
2896;SDS011;1458;49.728;9.228;2023-04-09T14:46:17;13.60;;;13.20;;
2896;SDS011;1458;49.728;9.228;2023-04-09T14:48:44;13.40;;;13.00;;
2896;SDS011;1458;49.728;9.228;2023-04-09T14:51:12;13.30;;;12.90;;
2896;SDS011;1458;49.728;9.228;2023-04-09T14:53:40;13.50;;;13.10;;
2896;SDS011;1458;49.728;9.228;2023-04-09T14:56:09;13.43;;;13.03;;
2896;SDS011;1458;49.728;9.228;2023-04-09T14:58:36;13.20;;;12.80;;
2896;SDS011;1458;49.728;9.228;2023-04-09T15:01:04;12.80;;;12.40;;
2896;SDS011;1458;49.728;9.228;2023-04-09T15:03:31;13.37;;;12.97;;
2896;SDS011;1458;49.728;9.228;2023-04-09T15:05:59;13.40;;;13.00;;
2896;SDS011;1458;49.728;9.228;2023-04-09T15:08:26;13.30;;;12.90;;
2896;SDS011;1458;49.728;9.228;2023-04-09T15:10:54;13.40;;;13.00;;
2896;SDS011;1458;49.728;9.228;2023-04-09T15:13:22;13.40;;;13.00;;
2896;SDS011;1458;49.728;9.228;2023-04-09T15:15:50;13.20;;;12.80;;
2896;SDS011;1458;49.728;9.228;2023-04-09T15:18:17;13.20;;;12.80;;
2896;SDS011;1458;49.728;9.228;2023-04-09T15:20:45;12.90;;;12.50;;
2896;SDS011;1458;49.728;9.228;2023-04-09T15:23:12;13.10;;;12.70;;
2896;SDS011;1458;49.728;9.228;2023-04-09T15:25:40;13.60;;;13.20;;